Terminal Aerodrome Forecast
Issued by NWS Wilmington, OH

Current Version | Previous Version | Graphics & Text | Print | Product List | Glossary On
Versions: 1 2 3 4 5 6 7 8 9 10 11 12 13 14 15 16 17 18 19 20 21 22 23
000
FTUS41 KILN 220403 AAA
TAFCVG
TAF AMD
KCVG 220403Z 2204/2306 19004KT 3SM -RA BR OVC050
      TEMPO 2204/2207 1SM BR
     FM220700 VRB03KT 3SM BR VCSH OVC015
     FM221100 VRB03KT 2SM BR OVC008
     FM221500 19004KT 5SM BR OVC008
     FM221900 19005KT P6SM BKN025=

USA.gov is the U.S. government's official web portal to all federal, state and local government web resources and services.